createdAt,value
2022-08-07T00:00:26.635Z,93.47
2022-08-07T00:03:06.220Z,93.07
2022-08-07T00:05:37.450Z,92.97
2022-08-07T00:08:07.813Z,92.23
2022-08-07T00:10:35.726Z,92.54
2022-08-07T00:13:23.549Z,92.98
2022-08-07T00:15:53.657Z,93.86
2022-08-07T00:18:29.575Z,94.10
2022-08-07T00:21:08.151Z,93.39
2022-08-07T00:23:52.870Z,93.80
2022-08-07T00:26:49.092Z,93.85
2022-08-07T00:29:07.750Z,94.79
2022-08-07T00:31:38.433Z,94.96
2022-08-07T00:34:09.546Z,95.20
2022-08-07T00:36:38.634Z,96.51
2022-08-07T00:39:16.571Z,97.11
2022-08-07T00:42:02.564Z,97.60
2022-08-07T00:44:38.401Z,97.60
2022-08-07T00:47:16.024Z,98.35
2022-08-07T00:50:19.862Z,97.69
2022-08-07T00:52:47.244Z,97.86
2022-08-07T00:55:17.267Z,98.24
2022-08-07T00:57:55.145Z,98.16
2022-08-07T01:00:23.957Z,97.86
2022-08-07T01:02:52.235Z,98.57
2022-08-07T01:05:21.083Z,98.27
2022-08-07T01:07:52.574Z,98.44
2022-08-07T01:10:22.734Z,99.23
2022-08-07T01:12:53.237Z,99.24
2022-08-07T01:15:35.857Z,98.80
2022-08-07T01:18:16.889Z,98.46
2022-08-07T01:20:57.404Z,98.63
2022-08-07T01:23:35.436Z,98.58
2022-08-07T01:26:12.220Z,98.74
2022-08-07T01:28:46.009Z,100.00
2022-08-07T01:31:21.328Z,100.00
2022-08-07T01:33:55.491Z,100.00
2022-08-07T01:36:33.776Z,100.00
2022-08-07T01:39:09.920Z,100.00
2022-08-07T01:41:40.677Z,100.00
2022-08-07T01:44:30.420Z,100.00
2022-08-07T01:47:01.222Z,99.80
2022-08-07T01:49:43.674Z,100.00
2022-08-07T01:52:12.455Z,100.00
2022-08-07T01:54:44.626Z,100.00
2022-08-07T01:57:24.866Z,100.00
2022-08-07T02:00:12.879Z,100.00
2022-08-07T02:03:12.265Z,100.00
2022-08-07T02:05:42.972Z,100.00
2022-08-07T02:08:17.898Z,100.00
2022-08-07T02:10:48.765Z,100.00
2022-08-07T02:13:57.824Z,100.00
2022-08-07T02:16:19.857Z,100.00
2022-08-07T02:18:56.556Z,100.00
2022-08-07T02:21:27.145Z,100.00
2022-08-07T02:24:17.705Z,100.00
2022-08-07T02:26:47.258Z,100.00
2022-08-07T02:29:16.266Z,100.00
2022-08-07T02:31:50.924Z,100.00
2022-08-07T02:34:21.313Z,100.00
2022-08-07T02:36:56.442Z,100.00
2022-08-07T02:39:42.540Z,100.00
2022-08-07T02:42:17.228Z,100.00
2022-08-07T02:44:51.876Z,100.00
2022-08-07T02:47:24.886Z,100.00
2022-08-07T02:50:01.097Z,100.00
2022-08-07T02:52:48.668Z,100.00
2022-08-07T02:55:28.405Z,100.00
2022-08-07T02:58:17.554Z,100.00
2022-08-07T03:00:52.511Z,100.00
2022-08-07T03:03:22.845Z,100.00
2022-08-07T03:05:56.410Z,100.00
2022-08-07T03:08:26.760Z,100.00
2022-08-07T03:10:59.801Z,100.00
2022-08-07T03:13:38.695Z,100.00
2022-08-07T03:16:09.380Z,100.00
2022-08-07T03:18:38.636Z,100.00
2022-08-07T03:21:08.511Z,100.00
2022-08-07T03:24:19.502Z,100.00
2022-08-07T03:26:32.654Z,100.00
2022-08-07T03:29:11.173Z,100.00
2022-08-07T03:31:46.478Z,100.00
2022-08-07T03:34:22.250Z,100.00
2022-08-07T03:36:55.184Z,100.00
2022-08-07T03:39:46.426Z,100.00
2022-08-07T03:42:17.265Z,100.00
2022-08-07T03:44:47.206Z,100.00
2022-08-07T03:47:22.732Z,100.00
2022-08-07T03:49:52.431Z,99.17
2022-08-07T03:52:26.613Z,98.93
2022-08-07T03:55:06.536Z,97.89
2022-08-07T03:58:34.531Z,96.95
2022-08-07T04:00:33.632Z,95.58
2022-08-07T04:03:04.794Z,95.82
2022-08-07T04:05:41.137Z,93.65
2022-08-07T04:08:16.285Z,93.33
2022-08-07T04:10:54.411Z,93.00
2022-08-07T04:14:09.552Z,92.21
2022-08-07T04:16:31.397Z,92.51
2022-08-07T04:19:14.990Z,93.97
2022-08-07T04:21:59.729Z,94.35
2022-08-07T04:24:41.178Z,94.47
2022-08-07T04:27:15.315Z,94.60
2022-08-07T04:30:01.446Z,93.19
2022-08-07T04:32:39.192Z,93.95
2022-08-07T04:35:13.896Z,93.60
2022-08-07T04:38:01.127Z,94.12
2022-08-07T04:40:33.024Z,93.33
2022-08-07T04:43:03.495Z,92.67
2022-08-07T04:46:00.554Z,90.06
2022-08-07T04:48:52.317Z,88.81
2022-08-07T04:51:37.945Z,86.40
2022-08-07T04:54:34.668Z,86.01
2022-08-07T04:58:13.819Z,83.99
2022-08-07T05:00:46.097Z,84.56
2022-08-07T05:03:38.777Z,82.36
2022-08-07T05:06:19.879Z,81.21
2022-08-07T05:09:01.368Z,83.23
2022-08-07T05:11:58.287Z,81.91
2022-08-07T05:14:54.301Z,82.31
2022-08-07T05:17:53.080Z,81.70
2022-08-07T05:20:24.869Z,84.86
2022-08-07T05:22:59.778Z,83.03
2022-08-07T05:25:37.409Z,78.36
2022-08-07T05:28:23.126Z,62.40
2022-08-07T05:30:57.026Z,46.58
2022-08-07T05:33:28.962Z,38.63
2022-08-07T05:35:58.522Z,33.69
2022-08-07T05:38:59.452Z,31.69
2022-08-07T05:41:18.206Z,30.99
2022-08-07T05:44:08.254Z,28.58
2022-08-07T05:46:43.087Z,26.94
2022-08-07T05:49:14.417Z,27.67
2022-08-07T05:51:46.941Z,25.20
2022-08-07T05:54:30.568Z,24.53
2022-08-07T05:57:03.468Z,22.94
2022-08-07T05:59:47.232Z,22.87
2022-08-07T06:02:29.701Z,23.18
2022-08-07T06:05:06.032Z,23.36
2022-08-07T06:08:29.529Z,22.35
2022-08-07T06:10:25.518Z,24.45
2022-08-07T06:12:53.931Z,26.96
2022-08-07T06:15:39.149Z,24.75
2022-08-07T06:18:15.054Z,22.95
2022-08-07T06:20:50.586Z,21.74
2022-08-07T06:24:37.428Z,20.88
2022-08-07T06:26:27.759Z,19.40
2022-08-07T06:29:00.101Z,19.02
2022-08-07T06:31:49.366Z,18.36
2022-08-07T06:34:20.804Z,18.24
2022-08-07T06:36:52.136Z,17.64
2022-08-07T06:40:13.107Z,18.19
2022-08-07T06:42:35.213Z,17.78
2022-08-07T06:45:18.235Z,17.26
2022-08-07T06:47:58.986Z,16.95
2022-08-07T06:50:47.741Z,16.51
2022-08-07T06:55:27.527Z,17.25
2022-08-07T06:56:15.225Z,19.96
2022-08-07T07:00:13.922Z,23.59
2022-08-07T07:01:44.069Z,22.40
2022-08-07T07:04:28.601Z,24.10
2022-08-07T07:07:02.424Z,21.19
2022-08-07T07:09:46.159Z,19.03
2022-08-07T07:12:30.754Z,20.26
2022-08-07T07:15:09.050Z,19.45
2022-08-07T07:17:58.062Z,18.32
2022-08-07T07:20:50.195Z,18.01
2022-08-07T07:24:08.042Z,16.79
2022-08-07T07:26:35.941Z,15.94
2022-08-07T07:29:40.388Z,16.82
2022-08-07T07:31:55.625Z,16.42
2022-08-07T07:34:31.076Z,17.49
2022-08-07T07:37:14.759Z,16.03
2022-08-07T07:39:54.732Z,16.45
2022-08-07T07:42:32.991Z,18.65
2022-08-07T07:45:03.770Z,17.91
2022-08-07T07:47:51.790Z,17.16
2022-08-07T07:50:34.216Z,16.96
2022-08-07T07:53:13.668Z,15.74
2022-08-07T07:56:00.508Z,15.72
2022-08-07T07:58:40.242Z,15.41
2022-08-07T08:02:01.572Z,15.38
2022-08-07T08:04:10.666Z,15.63
2022-08-07T08:06:51.969Z,16.15
2022-08-07T08:09:23.731Z,15.71
2022-08-07T08:12:02.558Z,17.07
2022-08-07T08:14:34.450Z,16.48
2022-08-07T08:17:55.398Z,16.86
2022-08-07T08:20:17.446Z,17.75
2022-08-07T08:23:10.099Z,18.17
2022-08-07T08:26:03.399Z,18.68
2022-08-07T08:28:37.922Z,18.26
2022-08-07T08:31:15.940Z,16.66
2022-08-07T08:33:49.791Z,15.25
2022-08-07T08:36:29.706Z,16.34
2022-08-07T08:39:02.049Z,16.47
2022-08-07T08:41:58.695Z,15.98
2022-08-07T08:44:47.135Z,15.90
2022-08-07T08:47:52.567Z,16.04
2022-08-07T08:50:39.453Z,17.01
2022-08-07T08:53:35.159Z,16.54
2022-08-07T08:56:04.977Z,16.42
2022-08-07T08:58:54.447Z,17.16
2022-08-07T09:01:44.222Z,19.23
2022-08-07T09:04:37.590Z,17.32
2022-08-07T09:07:46.445Z,16.97
2022-08-07T09:10:37.861Z,17.08
2022-08-07T09:13:37.694Z,17.23
2022-08-07T09:16:29.739Z,17.69
2022-08-07T09:19:51.472Z,19.55
2022-08-07T09:24:53.813Z,22.70
2022-08-07T09:25:33.873Z,27.06
2022-08-07T09:30:06.179Z,28.88
2022-08-07T09:31:13.562Z,30.62
2022-08-07T09:33:56.759Z,32.62
2022-08-07T09:36:35.612Z,31.58
2022-08-07T09:39:18.008Z,31.73
2022-08-07T09:42:09.907Z,27.67
2022-08-07T09:47:24.222Z,23.61
2022-08-07T09:50:01.118Z,22.85
2022-08-07T09:52:16.848Z,22.05
2022-08-07T09:54:40.445Z,22.41
2022-08-07T09:57:07.643Z,24.95
2022-08-07T10:00:14.533Z,25.30
2022-08-07T10:04:07.083Z,23.69
2022-08-07T10:06:02.876Z,23.69
2022-08-07T10:09:34.334Z,22.58
2022-08-07T10:12:34.883Z,22.47
2022-08-07T10:15:59.783Z,24.58
2022-08-07T10:18:35.826Z,25.29
2022-08-07T10:22:12.417Z,26.64
2022-08-07T10:24:39.814Z,28.30
2022-08-07T10:27:19.927Z,29.43
2022-08-07T10:30:12.415Z,31.34
2022-08-07T10:32:54.242Z,32.51
2022-08-07T10:35:55.673Z,34.13
2022-08-07T10:38:48.636Z,35.76
2022-08-07T10:41:51.224Z,36.24
2022-08-07T10:44:38.331Z,39.03
2022-08-07T10:47:27.242Z,41.04
2022-08-07T10:50:58.592Z,41.99
2022-08-07T10:53:44.116Z,43.84
2022-08-07T10:56:50.813Z,43.72
2022-08-07T10:59:47.481Z,41.19
2022-08-07T11:02:39.994Z,40.07
2022-08-07T11:05:50.529Z,39.96
2022-08-07T11:08:44.099Z,40.05
2022-08-07T11:11:20.253Z,39.81
2022-08-07T11:14:45.087Z,40.70
2022-08-07T11:16:55.780Z,40.51
2022-08-07T11:19:37.079Z,39.80
2022-08-07T11:22:38.273Z,39.64
2022-08-07T11:25:49.857Z,38.64
2022-08-07T11:28:55.527Z,38.18
2022-08-07T11:31:41.805Z,38.32
2022-08-07T11:34:36.958Z,39.87
2022-08-07T11:37:38.546Z,38.56
2022-08-07T11:40:50.084Z,39.23
2022-08-07T11:43:41.498Z,38.53
2022-08-07T11:46:36.646Z,38.04
2022-08-07T11:50:11.524Z,39.52
2022-08-07T11:52:35.669Z,38.53
2022-08-07T11:55:18.626Z,39.65
2022-08-07T11:58:21.567Z,39.40
2022-08-07T12:01:09.848Z,38.99
2022-08-07T12:04:01.921Z,38.64
2022-08-07T12:06:56.163Z,38.19
2022-08-07T12:09:42.529Z,37.92
2022-08-07T12:12:22.606Z,38.63
2022-08-07T12:14:56.117Z,43.52
2022-08-07T12:17:58.769Z,47.17
2022-08-07T12:20:46.299Z,51.86
2022-08-07T12:23:37.293Z,55.22
2022-08-07T12:26:23.181Z,55.03
2022-08-07T12:29:03.724Z,54.12
2022-08-07T12:31:52.872Z,54.69
2022-08-07T12:34:33.364Z,54.51
2022-08-07T12:37:02.205Z,53.27
2022-08-07T12:39:44.377Z,55.62
2022-08-07T12:42:22.928Z,56.22
2022-08-07T12:44:59.012Z,56.75
2022-08-07T12:47:33.777Z,57.75
2022-08-07T12:50:38.588Z,58.08
2022-08-07T12:54:23.799Z,57.56
2022-08-07T12:56:51.028Z,58.00
2022-08-07T12:59:33.192Z,59.47
2022-08-07T13:02:41.704Z,60.68
2022-08-07T13:06:01.819Z,62.79
2022-08-07T13:08:18.805Z,63.23
2022-08-07T13:11:08.623Z,61.89
2022-08-07T13:13:54.090Z,62.36
2022-08-07T13:16:46.899Z,60.23
2022-08-07T13:19:50.225Z,58.62
2022-08-07T13:22:31.143Z,59.20
2022-08-07T13:25:03.108Z,59.49
2022-08-07T13:28:11.030Z,59.59
2022-08-07T13:30:41.256Z,58.92
2022-08-07T13:34:32.757Z,60.04
2022-08-07T13:36:40.480Z,61.03
2022-08-07T13:39:49.493Z,61.61
2022-08-07T13:42:14.624Z,61.58
2022-08-07T13:45:11.636Z,61.94
2022-08-07T13:48:06.875Z,61.66
2022-08-07T13:50:32.721Z,61.34
2022-08-07T13:53:05.346Z,60.23
2022-08-07T13:55:37.158Z,60.44
2022-08-07T13:58:31.802Z,63.24
2022-08-07T14:01:11.943Z,61.74
2022-08-07T14:04:05.676Z,61.54
2022-08-07T14:06:35.972Z,60.85
2022-08-07T14:09:05.992Z,60.23
2022-08-07T14:11:53.486Z,59.51
2022-08-07T14:14:43.361Z,60.17
2022-08-07T14:18:12.246Z,59.83
2022-08-07T14:20:43.262Z,60.70
2022-08-07T14:23:09.238Z,60.55
2022-08-07T14:25:48.033Z,60.20
2022-08-07T14:28:19.194Z,58.76
2022-08-07T14:30:52.348Z,58.73
2022-08-07T14:33:23.468Z,58.44
2022-08-07T14:35:58.733Z,58.88
2022-08-07T14:38:30.765Z,58.96
2022-08-07T14:43:57.320Z,58.66
2022-08-07T14:46:51.585Z,58.65
2022-08-07T14:49:57.934Z,56.63
2022-08-07T14:52:18.818Z,56.85
2022-08-07T14:54:54.205Z,57.31
2022-08-07T14:57:25.211Z,55.88
2022-08-07T15:00:20.626Z,56.27
2022-08-07T15:03:16.701Z,56.92
2022-08-07T15:05:54.323Z,58.01
2022-08-07T15:08:50.304Z,58.42
2022-08-07T15:14:19.789Z,59.96
2022-08-07T15:16:54.978Z,60.48
2022-08-07T15:20:31.838Z,62.29
2022-08-07T15:22:29.519Z,63.67
2022-08-07T15:25:18.017Z,61.68
2022-08-07T15:28:32.453Z,60.64
2022-08-07T15:33:33.651Z,63.65
2022-08-07T15:36:05.344Z,63.75
2022-08-07T15:38:51.365Z,62.82
2022-08-07T15:44:18.284Z,63.30
2022-08-07T15:46:52.920Z,64.05
2022-08-07T15:50:05.154Z,64.54
2022-08-07T15:52:20.489Z,66.54
2022-08-07T15:54:51.493Z,64.91
2022-08-07T15:57:47.835Z,65.86
2022-08-07T16:00:31.335Z,66.24
2022-08-07T16:03:22.121Z,67.66
2022-08-07T16:06:03.361Z,66.07
2022-08-07T16:08:38.929Z,65.75
2022-08-07T16:11:26.472Z,65.98
2022-08-07T16:14:17.049Z,66.77
2022-08-07T16:18:02.368Z,67.59
2022-08-07T16:20:33.378Z,67.36
2022-08-07T16:23:53.572Z,66.70
2022-08-07T16:26:30.991Z,66.80
2022-08-07T16:30:10.291Z,65.50
2022-08-07T16:32:34.432Z,64.00
2022-08-07T16:35:58.403Z,64.61
2022-08-07T16:39:01.303Z,65.03
2022-08-07T16:41:54.129Z,66.32
2022-08-07T16:44:47.465Z,66.47
2022-08-07T16:47:56.426Z,67.29
2022-08-07T16:51:21.706Z,68.02
2022-08-07T16:54:11.483Z,66.59
2022-08-07T16:56:55.460Z,66.17
2022-08-07T16:59:46.786Z,66.35
2022-08-07T17:03:05.086Z,67.24
2022-08-07T17:06:29.002Z,68.17
2022-08-07T17:09:14.326Z,68.77
2022-08-07T17:12:05.196Z,69.09
2022-08-07T17:14:50.540Z,70.40
2022-08-07T17:17:44.037Z,70.96
2022-08-07T17:20:46.454Z,71.06
2022-08-07T17:23:32.357Z,71.56
2022-08-07T17:26:34.908Z,71.54
2022-08-07T17:30:15.779Z,71.73
2022-08-07T17:32:52.793Z,72.51
2022-08-07T17:35:55.247Z,72.65
2022-08-07T17:38:33.860Z,72.64
2022-08-07T17:42:04.038Z,73.13
2022-08-07T17:44:34.074Z,73.97
2022-08-07T17:47:38.104Z,74.34
2022-08-07T17:50:16.802Z,73.95
2022-08-07T17:52:54.156Z,74.97
2022-08-07T17:55:54.894Z,74.93
2022-08-07T17:58:32.020Z,75.20
2022-08-07T18:01:20.916Z,75.00
2022-08-07T18:04:16.671Z,75.74
2022-08-07T18:07:19.376Z,75.41
2022-08-07T18:10:05.249Z,75.05
2022-08-07T18:12:51.627Z,75.90
2022-08-07T18:15:32.337Z,74.95
2022-08-07T18:18:45.765Z,75.62
2022-08-07T18:21:51.650Z,74.85
2022-08-07T18:24:41.858Z,73.80
2022-08-07T18:27:21.034Z,74.18
2022-08-07T18:30:31.920Z,74.07
2022-08-07T18:33:54.854Z,74.90
2022-08-07T18:36:41.116Z,73.98
2022-08-07T18:40:06.408Z,75.37
2022-08-07T18:42:39.442Z,75.52
2022-08-07T18:45:44.735Z,75.90
2022-08-07T18:48:10.257Z,75.51
2022-08-07T18:51:18.329Z,76.49
2022-08-07T18:54:30.967Z,77.79
2022-08-07T18:57:30.681Z,78.17
2022-08-07T19:00:32.677Z,78.30
2022-08-07T19:03:35.590Z,77.56
2022-08-07T19:06:16.886Z,77.52
2022-08-07T19:09:09.504Z,77.72
2022-08-07T19:12:26.646Z,77.41
2022-08-07T19:16:02.582Z,77.28
2022-08-07T19:18:10.998Z,77.75
2022-08-07T19:21:13.949Z,78.12
2022-08-07T19:24:01.388Z,78.91
2022-08-07T19:27:02.047Z,79.17
2022-08-07T19:31:04.083Z,78.33
2022-08-07T19:32:27.232Z,78.48
2022-08-07T19:35:01.557Z,81.12
2022-08-07T19:37:55.004Z,80.93
2022-08-07T19:40:30.994Z,80.56
2022-08-07T19:43:08.464Z,81.27
2022-08-07T19:46:06.231Z,81.04
2022-08-07T19:48:43.620Z,80.88
2022-08-07T19:51:20.302Z,81.12
2022-08-07T19:54:34.266Z,80.97
2022-08-07T19:57:52.309Z,80.86
2022-08-07T19:59:40.583Z,80.19
2022-08-07T20:02:19.263Z,81.35
2022-08-07T20:04:51.957Z,82.51
2022-08-07T20:07:28.266Z,83.75
2022-08-07T20:10:35.177Z,84.61
2022-08-07T20:13:06.369Z,85.45
2022-08-07T20:15:43.770Z,85.24
2022-08-07T20:18:14.657Z,84.45
2022-08-07T20:20:46.322Z,85.37
2022-08-07T20:23:33.107Z,84.78
2022-08-07T20:26:10.367Z,84.47
2022-08-07T20:28:42.131Z,84.48
2022-08-07T20:31:21.151Z,85.45
2022-08-07T20:33:56.355Z,86.97
2022-08-07T20:36:29.248Z,87.38
2022-08-07T20:39:00.436Z,87.77
2022-08-07T20:41:38.544Z,89.38
2022-08-07T20:44:12.879Z,87.02
2022-08-07T20:46:43.816Z,89.09
2022-08-07T20:49:59.052Z,90.35
2022-08-07T20:52:14.217Z,90.19
2022-08-07T20:54:53.752Z,90.94
2022-08-07T20:57:25.717Z,90.60
2022-08-07T21:00:06.867Z,92.13
2022-08-07T21:02:58.583Z,92.74
2022-08-07T21:05:52.741Z,93.25
2022-08-07T21:08:37.663Z,93.14
2022-08-07T21:11:18.106Z,93.13
2022-08-07T21:14:20.236Z,93.83
2022-08-07T21:16:56.864Z,94.26
2022-08-07T21:19:51.534Z,94.21
2022-08-07T21:22:25.569Z,94.73
2022-08-07T21:25:12.247Z,94.57
2022-08-07T21:27:54.668Z,94.47
2022-08-07T21:30:39.063Z,95.00
2022-08-07T21:33:22.901Z,95.07
2022-08-07T21:36:12.093Z,95.55
2022-08-07T21:39:46.551Z,95.70
2022-08-07T21:42:48.178Z,96.10
2022-08-07T21:46:10.686Z,95.87
2022-08-07T21:48:42.533Z,96.34
2022-08-07T21:51:27.560Z,97.22
2022-08-07T21:54:22.123Z,97.47
2022-08-07T21:57:31.473Z,97.13
2022-08-07T22:00:21.955Z,97.80
2022-08-07T22:03:16.454Z,97.92
2022-08-07T22:05:58.103Z,97.34
2022-08-07T22:08:34.036Z,97.46
2022-08-07T22:11:04.805Z,97.20
2022-08-07T22:13:51.791Z,97.00
2022-08-07T22:16:46.930Z,96.95
2022-08-07T22:19:23.680Z,97.98
2022-08-07T22:22:30.180Z,98.44
2022-08-07T22:25:18.601Z,98.25
2022-08-07T22:28:08.104Z,97.87
2022-08-07T22:31:45.263Z,97.37
2022-08-07T22:34:08.384Z,98.23
2022-08-07T22:37:02.202Z,98.51
2022-08-07T22:39:30.459Z,98.15
2022-08-07T22:42:30.403Z,97.92
2022-08-07T22:46:21.656Z,97.52
2022-08-07T22:48:13.650Z,97.61
2022-08-07T22:51:27.299Z,97.43
2022-08-07T22:54:31.635Z,97.74
2022-08-07T22:57:25.854Z,97.21
2022-08-07T23:00:12.502Z,96.54
2022-08-07T23:02:57.571Z,94.55
2022-08-07T23:06:10.075Z,95.12
2022-08-07T23:10:01.174Z,95.45
2022-08-07T23:12:06.864Z,94.80
2022-08-07T23:14:57.907Z,94.79
2022-08-07T23:17:41.948Z,94.68
2022-08-07T23:20:51.316Z,94.90
2022-08-07T23:24:05.291Z,93.49
2022-08-07T23:27:05.931Z,92.85
2022-08-07T23:30:37.934Z,93.65
2022-08-07T23:34:22.514Z,93.63
2022-08-07T23:36:08.258Z,93.37
2022-08-07T23:38:48.325Z,93.89
2022-08-07T23:41:33.453Z,93.87
2022-08-07T23:44:29.497Z,92.93
2022-08-07T23:47:24.578Z,91.79
2022-08-07T23:50:17.221Z,91.51
2022-08-07T23:52:58.323Z,91.55
2022-08-07T23:55:55.768Z,90.69
2022-08-07T23:58:46.082Z,90.46
